Arlington, VA

11:55 PM EDT on August 22, 2014 (GMT -0400)
Ashton Heights | Change Station
CLOSE
Current Station
Personal Weather Station
Location: Arlington, VA
Elevation: 258 ft
Nearby Weather Stations

Elev 258 ft 38.88 °N, 77.10 °W | Updated 24 minutes ago

Overcast
Overcast
73.3 °F
Feels Like 71 °F
N
2.0
Wind Variable Wind from ESE
Gusts 7.0 mph

Today
High -- | Low -- °F
--% Chance of Precip.
Yesterday
High -- | Low -- °F
Precip. -- in
6:28 AM 7:53 PM
Waning Crescent, 5% visible
Pressure 30.01 in
Visibility 10.0 miles
Clouds Mostly Cloudy 1800 ft
Mostly Cloudy 3600 ft
Overcast 7000 ft
Heat Index 71 °F
Dew Point 70 °F
Humidity 89%
Rainfall 0.00 in
Snow Depth Not available.
UV 0 out of 12
Pollen 8.60 out of 12
Ozone Good
PM2.5 Good
Flu Activity Not available.
SPECI KDCA 230323Z 11004KT 10SM BKN018 BKN036 OVC070 24/21 A3001 RMK AO2

More Conditions Fewer Conditions

Pressure 30.01 in
Visibility 10.0 miles
Clouds Mostly Cloudy 1800 ft
Mostly Cloudy 3600 ft
Overcast 7000 ft
Heat Index 71 °F
Dew Point 70 °F
Humidity 89%
Rainfall 0.00 in
Snow Depth Not available.
UV 0 out of 12
Pollen 8.60 out of 12
Ozone Good
PM2.5 Good
Flu Activity Not available.
SPECI KDCA 230323Z 11004KT 10SM BKN018 BKN036 OVC070 24/21 A3001 RMK AO2

More Conditions Fewer Conditions

10-Day Weather Forecast

Almanac

Astronomy

Aug. 22, 2014 Rise Set
Actual Time 6:28 AM EDT 7:53 PM EDT
Civil Twilight 6:00 AM EDT 8:21 PM EDT
Nautical Twilight 5:26 AM EDT 8:54 PM EDT
Astronomical Twilight 4:51 AM EDT 9:30 PM EDT
Moon 3:49 AM EDT (8/22) 6:00 PM EDT (8/22)
Length of Visible Light 14h 21m
Length of Day
13h 25m
Tomorrow will be 2m 20s shorter.
Waning Crescent, 5% of the Moon is Illuminated
Today
Waning Crescent
Aug 25
New
Sep 2
First Quarter
Sep 8
Full
Sep 15
Last Quarter

Today's Extremes

State Highs State Lows

Community

WunderPhotos

Upload Photos

1,746,352 photos uploaded!

WunderBlogs® & News

Nearby

Air Quality

  Air Quality AQ Index Pollutant
Yesterday Good
PM10
Yesterday Good
OZONE
Current Good
PM2.5
Current Good
OZONE
Friday Moderate
PM2.5
Friday Good
OZONE
Saturday Good
PM2.5
Saturday Good
OZONE
Sunday Good
OZONE
Sunday Good
PM2.5
Monday Good
OZONE
Monday Good
PM2.5

Snow Depth

Station Depth Elevation
No new snow has been reported.

Earthquake Activity

City Distance Mag. Time & Date
No recent earthquake activity has been reported nearby.
Minimum magnitude displayed is 2.5.

Coastal Water Temperatures

Place Temperature
Washington, DC 79.0 °F
Baltimore, MD 82.0 °F
Solomons Island, MD 79.0 °F

Nearby Weather Stations